Latest Weather Observations for Bundaberg

IDQ60801

Issued at 12:32 pm EST Monday 26 August 2019 (issued every 10 minutes, with the page automatically refreshed every 10 minutes)

About weather observations | Map of weather stations | Latest weather observations for QLD | Other Formats
Station Details ID: 039128 Name: BUNDABERG AERO Lat: -24.91 Lon: 152.32 Height: 30.82 m
Data from the previous 72 hours. | See also: Recent months at Bundaberg
Date/Time
EST
Temp
°C
App
Temp
°C
Dew
Point
°C
Rel
Hum
%
Delta-T
°C
Wind Press
QNH
hPa
Press
MSL
hPa
Rain since
9am
mm
Dir  Spd
km/h
Gust
km/h
Spd
kts
Gust
kts
26/12:30pm 26.4 25.5 12.5 42 8.0 NE 9 22 5 12 1017.2 1017.1 0.0
26/12:00pm 25.8 23.8 8.8 34 9.2 SE 9 15 5 8 1017.8 1017.7 0.0
26/11:30am 25.2 23.5 9.9 38 8.4 NW 9 17 5 9 1018.4 1018.3 0.0
26/11:00am 24.8 22.6 9.5 38 8.3 NNW 11 17 6 9 1018.9 1018.8 0.0
26/10:30am 23.7 22.0 9.7 41 7.6 W 9 13 5 7 1019.4 1019.3 0.0
26/10:00am 22.9 22.2 11.9 50 6.2 NW 7 15 4 8 1019.7 1019.7 0.0
26/09:30am 21.7 21.0 13.1 58 4.9 W 9 15 5 8 1019.9 1019.9 0.0
26/09:00am 20.2 18.1 12.4 61 4.4 WSW 15 19 8 10 1020.2 1020.2 0.0
26/08:30am 19.1 17.3 13.3 69 3.3 W 15 20 8 11 1020.1 1020.1 0.0
26/08:00am 17.5 16.2 13.6 78 2.2 WSW 13 19 7 10 1019.9 1019.9 0.0
26/07:30am 14.4 13.9 13.9 97 0.3 WSW 9 11 5 6 1019.8 1019.8 0.0
26/07:00am 11.7 10.4 11.2 97 0.3 S 9 11 5 6 1019.6 1019.6 0.0
26/06:30am 10.6 9.8 9.8 95 0.4 S 4 11 2 6 1019.1 1019.0 0.0
26/06:00am 9.6 9.3 8.5 93 0.5 CALM 0 0 0 0 1018.8 1018.7 0.0
26/05:30am 9.8 9.5 8.7 93 0.5 CALM 0 0 0 0 1018.3 1018.2 0.0
26/05:00am 9.5 9.1 8.1 91 0.7 CALM 0 0 0 0 1018.1 1018.0 0.0
26/04:30am 9.8 9.4 8.4 91 0.7 CALM 0 0 0 0 1017.9 1017.8 0.0
26/04:00am 9.9 9.1 8.3 90 0.8 WSW 2 6 1 3 1017.9 1017.8 0.0
26/03:30am 10.6 9.4 9.4 92 0.6 WSW 6 6 3 3 1017.8 1017.7 0.0
26/03:00am 10.7 10.6 9.5 92 0.6 CALM 0 0 0 0 1017.8 1017.7 0.0
26/02:30am 10.1 9.8 8.5 90 0.8 CALM 0 0 0 0 1017.9 1017.8 0.0
26/02:00am 10.2 8.7 8.6 90 0.8 WSW 6 9 3 5 1018.1 1018.0 0.0
26/01:30am 11.3 11.3 9.7 90 0.8 CALM 0 0 0 0 1018.1 1018.0 0.0
26/01:00am 11.9 12.2 10.8 93 0.6 CALM 0 0 0 0 1018.4 1018.3 0.0
26/12:30am 11.2 10.5 10.1 93 0.6 WSW 4 7 2 4 1018.9 1018.8 0.0
26/12:00am 12.7 13.1 11.4 92 0.7 CALM 0 0 0 0 1018.9 1018.8 0.0
 
Date/Time
EST
Temp
°C
App
Temp
°C
Dew
Point
°C
Rel
Hum
%
Delta-T
°C
Wind Press
QNH
hPa
Press
MSL
hPa
Rain since
9am
mm
Dir  Spd
km/h
Gust
km/h
Spd
kts
Gust
kts
25/11:30pm 12.6 12.9 11.0 90 0.8 CALM 0 0 0 0 1019.1 1019.0 0.0
25/11:00pm 13.0 12.2 11.7 92 0.7 WNW 7 9 4 5 1019.3 1019.2 0.0
25/10:30pm 12.7 13.0 10.8 88 1.0 CALM 0 0 0 0 1019.2 1019.1 0.0
25/10:00pm 13.1 13.3 10.5 84 1.3 CALM 0 0 0 0 1019.2 1019.1 0.0
25/09:30pm 14.2 14.7 11.5 84 1.4 CALM 0 0 0 0 1019.3 1019.2 0.0
25/09:00pm 15.1 15.9 12.6 85 1.4 CALM 0 0 0 0 1019.2 1019.1 0.0
25/08:30pm 14.5 13.6 11.3 81 1.7 NNW 7 9 4 5 1019.1 1019.0 0.0
25/08:00pm 15.6 14.4 11.6 77 2.2 N 9 11 5 6 1019.0 1018.9 0.0
25/07:30pm 17.3 16.5 12.8 75 2.5 N 9 9 5 5 1018.9 1018.8 0.0
25/07:00pm 17.5 16.6 12.6 73 2.7 NNE 9 11 5 6 1018.7 1018.6 0.0
25/06:30pm 18.1 16.8 12.5 70 3.1 NNE 11 13 6 7 1018.4 1018.3 0.0
25/06:00pm 18.8 16.7 12.3 66 3.6 NNE 15 20 8 11 1018.2 1018.1 0.0
25/05:30pm 19.6 16.6 11.9 61 4.3 NNE 19 22 10 12 1017.9 1017.8 0.0
25/05:00pm 20.9 18.0 11.0 53 5.4 NNE 17 22 9 12 1017.7 1017.6 0.0
25/04:30pm 21.5 17.9 9.7 47 6.4 NNE 19 24 10 13 1017.3 1017.2 0.0
25/04:00pm 22.1 18.3 9.9 46 6.6 NNE 20 24 11 13 1017.1 1017.0 0.0
25/03:30pm 22.6 18.7 9.4 43 7.1 NNE 20 28 11 15 1017.0 1016.9 0.0
25/03:00pm 23.5 19.7 9.9 42 7.4 NNE 20 26 11 14 1017.0 1016.9 0.0
25/02:30pm 23.6 20.1 11.0 45 7.0 NE 20 26 11 14 1017.2 1017.1 0.0
25/02:00pm 23.3 20.7 10.7 45 7.0 NNE 15 30 8 16 1017.5 1017.4 0.0
25/01:30pm 23.5 20.3 9.9 42 7.4 NNE 17 26 9 14 1017.7 1017.6 0.0
25/01:00pm 23.0 19.9 10.4 45 6.9 N 17 26 9 14 1018.1 1018.0 0.0
25/12:30pm 22.5 19.2 9.6 44 7.0 NNE 17 24 9 13 1018.8 1018.7 0.0
25/12:00pm 22.6 20.9 9.7 44 7.0 W 9 17 5 9 1019.3 1019.2 0.0
25/11:30am 23.4 21.1 9.0 40 7.7 WSW 11 15 6 8 1019.9 1019.9 0.0
25/11:00am 23.0 21.4 8.7 40 7.6 NE 7 9 4 5 1020.4 1020.4 0.0
25/10:30am 22.6 20.7 10.4 46 6.7 NNE 11 15 6 8 1020.9 1020.9 0.0
25/10:00am 21.9 21.0 11.3 51 5.9 NNW 7 13 4 7 1021.3 1021.3 0.0
25/09:30am 20.6 20.2 12.3 59 4.7 NNE 6 11 3 6 1021.5 1021.5 0.0
25/09:00am 19.2 19.1 13.2 68 3.4 SSE 6 9 3 5 1021.7 1021.7 0.0
25/08:30am 17.8 17.6 13.5 76 2.4 SSW 7 11 4 6 1021.6 1021.6 0.0
25/08:00am 16.0 15.3 13.3 84 1.5 SSW 9 11 5 6 1021.6 1021.6 0.0
25/07:30am 14.0 13.4 13.4 96 0.3 SW 9 13 5 7 1021.5 1021.5 0.0
25/07:00am 11.3 10.8 10.7 96 0.3 W 4 7 2 4 1021.2 1021.2 0.0
25/06:30am 9.1 8.6 8.0 93 0.5 CALM 0 0 0 0 1020.7 1020.7 0.0
25/06:00am 9.5 9.2 8.6 94 0.4 CALM 0 0 0 0 1020.7 1020.7 0.0
25/05:30am 8.8 7.1 7.6 92 0.6 SW 6 7 3 4 1020.5 1020.5 0.0
25/05:00am 10.1 9.2 9.2 94 0.4 SSW 4 7 2 4 1020.2 1020.2 0.0
25/04:30am 10.2 8.7 9.3 94 0.4 SSW 7 9 4 5 1020.2 1020.2 0.0
25/04:00am 10.5 9.3 9.4 93 0.5 S 6 7 3 4 1020.1 1020.1 0.0
25/03:30am 11.2 9.3 10.4 95 0.4 SSW 11 13 6 7 1020.2 1020.2 0.0
25/03:00am 11.3 10.2 10.7 96 0.3 SSW 7 9 4 5 1020.4 1020.4 0.0
25/02:30am 10.4 8.6 9.5 94 0.5 SW 9 11 5 6 1020.6 1020.6 0.0
25/02:00am 10.4 9.1 9.3 93 0.5 SSW 6 7 3 4 1020.6 1020.6 0.0
25/01:30am 11.1 10.2 10.5 96 0.3 SW 6 9 3 5 1020.9 1020.9 0.0
25/01:00am 10.6 8.9 9.7 94 0.5 WSW 9 9 5 5 1021.5 1021.5 0.0
25/12:30am 11.2 10.0 10.3 94 0.5 SW 7 9 4 5 1021.7 1021.7 0.0
25/12:00am 10.8 9.3 9.2 90 0.8 SW 7 7 4 4 1021.6 1021.6 0.0
 
Date/Time
EST
Temp
°C
App
Temp
°C
Dew
Point
°C
Rel
Hum
%
Delta-T
°C
Wind Press
QNH
hPa
Press
MSL
hPa
Rain since
9am
mm
Dir  Spd
km/h
Gust
km/h
Spd
kts
Gust
kts
24/11:30pm 11.5 10.2 10.1 91 0.7 S 7 9 4 5 1021.5 1021.5 0.0
24/11:00pm 12.3 11.2 10.5 89 0.9 SE 7 9 4 5 1021.5 1021.5 0.0
24/10:30pm 12.0 12.0 9.7 86 1.2 CALM 0 0 0 0 1021.8 1021.8 0.0
24/10:00pm 12.6 11.1 10.7 88 1.0 ENE 9 11 5 6 1021.7 1021.7 0.0
24/09:30pm 12.3 11.1 9.5 83 1.4 ENE 6 9 3 5 1021.8 1021.8 0.0
24/09:00pm 13.5 13.8 11.0 85 1.3 CALM 0 0 0 0 1022.2 1022.2 0.0
24/08:30pm 13.5 12.7 10.9 84 1.4 N 6 11 3 6 1022.2 1022.2 0.0
24/08:00pm 14.8 15.2 11.4 80 1.8 CALM 0 2 0 1 1022.1 1022.1 0.0
24/07:30pm 15.2 13.9 11.2 77 2.1 E 9 11 5 6 1021.8 1021.8 0.0
24/07:00pm 16.3 15.0 11.2 72 2.7 E 9 11 5 6 1021.8 1021.8 0.0
24/06:30pm 17.7 16.6 11.9 69 3.2 E 9 11 5 6 1021.8 1021.8 0.0
24/06:00pm 17.8 16.5 11.1 65 3.6 E 9 11 5 6 1021.7 1021.7 0.0
24/05:30pm 18.6 16.8 10.9 61 4.2 E 11 17 6 9 1021.5 1021.5 0.0
24/05:00pm 19.3 16.9 11.3 60 4.4 E 15 20 8 11 1021.3 1021.3 0.0
24/04:30pm 19.8 16.5 11.0 57 4.8 ENE 19 22 10 12 1021.1 1021.1 0.0
24/04:00pm 19.9 16.7 11.1 57 4.8 E 19 24 10 13 1021.0 1021.0 0.0
24/03:30pm 20.4 17.0 11.1 55 5.1 E 20 24 11 13 1021.0 1021.0 0.0
24/03:00pm 21.0 17.4 10.5 51 5.7 ENE 20 28 11 15 1021.0 1021.0 0.0
24/02:30pm 21.6 17.7 9.5 46 6.5 ENE 20 28 11 15 1021.1 1021.1 0.0
24/02:00pm 22.0 18.7 9.5 45 6.7 E 17 26 9 14 1021.3 1021.3 0.0
24/01:30pm 21.6 18.4 9.8 47 6.4 E 17 24 9 13 1021.6 1021.6 0.0
24/01:00pm 22.0 18.5 10.2 47 6.4 E 19 24 10 13 1022.0 1022.0 0.0
24/12:30pm 21.2 18.0 10.1 49 6.0 ENE 17 24 9 13 1022.6 1022.6 0.0
24/12:00pm 21.8 18.5 9.7 46 6.5 E 17 26 9 14 1023.1 1023.1 0.0
24/11:30am 20.8 19.1 10.0 50 5.8 ESE 9 13 5 7 1023.7 1023.7 0.0
24/11:00am 20.2 18.0 10.9 55 5.1 SE 13 28 7 15 1024.3 1024.3 0.0
24/10:30am 20.4 17.5 11.1 55 5.1 SE 17 28 9 15 1024.8 1024.8 0.0
24/10:00am 19.9 17.3 11.9 60 4.4 S 17 24 9 13 1025.0 1025.0 0.0
24/09:30am 19.6 18.2 12.1 62 4.2 S 11 17 6 9 1025.1 1025.1 0.0
24/09:00am 17.6 14.5 12.3 71 2.9 SE 20 30 11 16 1025.5 1025.5 0.0
24/08:30am 17.1 14.8 11.6 70 3.0 SSE 15 22 8 12 1025.2 1025.2 0.0
24/08:00am 15.7 13.3 11.3 75 2.4 S 15 20 8 11 1024.9 1024.9 0.0
24/07:30am 14.3 11.3 10.7 79 1.9 S 17 20 9 11 1024.7 1024.7 0.0
24/07:00am 12.9 10.9 10.3 84 1.3 SSE 11 15 6 8 1024.5 1024.5 0.0
24/06:30am 11.6 9.9 9.7 88 1.0 S 9 11 5 6 1024.0 1024.0 0.0
24/06:00am 11.7 9.2 9.6 87 1.1 SSW 13 17 7 9 1023.6 1023.6 0.0
24/05:30am 11.6 9.1 9.7 88 1.0 SSW 13 17 7 9 1023.2 1023.2 0.0
24/05:00am 11.5 8.9 9.4 87 1.1 S 13 15 7 8 1023.0 1023.0 0.0
24/04:30am 11.8 9.3 9.7 87 1.1 SSW 13 17 7 9 1022.9 1022.9 0.0
24/04:00am 11.6 9.1 9.7 88 1.0 SSW 13 17 7 9 1022.8 1022.8 0.0
24/03:30am 11.4 8.8 9.3 87 1.1 SSW 13 15 7 8 1023.0 1023.0 0.0
24/03:00am 11.6 9.0 9.5 87 1.1 SSW 13 15 7 8 1023.1 1023.1 0.0
24/02:30am 11.4 8.4 9.3 87 1.1 S 15 19 8 10 1023.1 1023.1 0.0
24/02:00am 11.7 9.2 9.6 87 1.1 SSW 13 17 7 9 1023.3 1023.3 0.0
24/01:30am 11.1 9.1 8.7 85 1.2 S 9 11 5 6 1023.5 1023.5 0.0
24/01:00am 11.9 9.6 9.1 83 1.4 S 11 15 6 8 1023.8 1023.8 0.0
24/12:30am 12.2 9.6 9.2 82 1.5 SSW 13 17 7 9 1023.8 1023.8 0.0
24/12:00am 12.7 10.1 9.5 81 1.6 SSW 13 17 7 9 1023.9 1023.9 0.0
 
Date/Time
EST
Temp
°C
App
Temp
°C
Dew
Point
°C
Rel
Hum
%
Delta-T
°C
Wind Press
QNH
hPa
Press
MSL
hPa
Rain since
9am
mm
Dir  Spd
km/h
Gust
km/h
Spd
kts
Gust
kts
23/11:30pm 12.2 10.0 9.4 83 1.4 SSW 11 15 6 8 1024.1 1024.1 0.0
23/11:00pm 12.1 9.8 8.9 81 1.6 SSW 11 13 6 7 1024.4 1024.4 0.0
23/10:30pm 12.9 10.3 9.4 79 1.8 S 13 19 7 10 1024.5 1024.5 0.0
23/10:00pm 13.4 10.8 9.5 77 2.0 S 13 19 7 10 1024.6 1024.6 0.0
23/09:30pm 13.8 11.7 9.8 77 2.1 SSE 11 13 6 7 1024.5 1024.5 0.0
23/09:00pm 14.2 12.2 10.2 77 2.1 SSE 11 13 6 7 1024.5 1024.5 0.0
23/08:30pm 14.2 11.7 9.6 74 2.4 SE 13 17 7 9 1024.4 1024.4 0.0
23/08:00pm 15.7 12.2 10.2 70 2.9 ESE 19 20 10 11 1024.3 1024.3 0.0
23/07:30pm 15.9 12.3 9.8 67 3.2 ESE 19 22 10 12 1024.2 1024.2 0.0
23/07:00pm 16.0 12.2 9.0 63 3.6 ESE 19 20 10 11 1024.0 1024.0 0.0
23/06:30pm 16.8 12.7 8.8 59 4.1 ESE 20 28 11 15 1023.6 1023.6 0.0
23/06:00pm 17.7 13.5 9.6 59 4.2 ESE 22 30 12 16 1023.2 1023.2 0.0
23/05:30pm 18.4 13.8 9.5 56 4.7 ESE 24 30 13 16 1022.8 1022.8 0.0
23/05:00pm 19.4 14.4 9.6 53 5.2 ESE 26 35 14 19 1022.5 1022.5 0.0
23/04:30pm 20.3 14.9 9.5 50 5.8 ESE 28 35 15 19 1022.2 1022.2 0.0
23/04:00pm 20.4 13.9 9.0 48 6.0 ESE 33 41 18 22 1021.9 1021.9 0.0
23/03:30pm 21.3 15.5 9.5 47 6.3 ESE 30 39 16 21 1021.5 1021.5 0.0
23/03:00pm 20.8 14.4 9.4 48 6.1 E 33 43 18 23 1021.2 1021.2 0.0
23/02:30pm 21.9 16.4 9.1 44 6.8 E 28 35 15 19 1021.1 1021.1 0.0
23/02:00pm 22.5 17.0 9.0 42 7.2 ESE 28 39 15 21 1021.2 1021.2 0.0
23/01:30pm 20.9 15.7 10.1 50 5.8 ESE 28 39 15 21 1021.5 1021.5 0.0
23/01:00pm 23.0 17.8 10.4 45 6.9 SE 28 43 15 23 1021.6 1021.6 0.0

Other formats

Comma delimited format used in spreadsheet applications
http://www.bom.gov.au/fwo/IDQ60801/IDQ60801.94387.axf

JavaScript Object Notation format (JSON) in row-major order
http://www.bom.gov.au/fwo/IDQ60801/IDQ60801.94387.json

Data quality

Most of these data are generated automatically and are frequently updated. Quality checks on data are not normally performed. It is possible for incorrect values to appear. Refer to information at About Latest Weather Observations and please check the disclaimer before using these data.